createdAt,value
2022-12-18T00:00:43.255Z,77.60
2022-12-18T00:03:28.602Z,77.48
2022-12-18T00:06:15.096Z,77.86
2022-12-18T00:09:02.622Z,77.48
2022-12-18T00:11:48.413Z,77.95
2022-12-18T00:14:33.887Z,78.02
2022-12-18T00:17:19.181Z,77.69
2022-12-18T00:20:05.168Z,77.88
2022-12-18T00:22:50.783Z,77.80
2022-12-18T00:25:37.291Z,77.53
2022-12-18T00:28:22.875Z,77.95
2022-12-18T00:31:12.022Z,77.78
2022-12-18T00:33:58.331Z,78.22
2022-12-18T00:36:43.864Z,77.64
2022-12-18T00:39:30.510Z,78.25
2022-12-18T00:42:34.624Z,77.84
2022-12-18T00:45:20.058Z,78.08
2022-12-18T00:48:05.713Z,77.68
2022-12-18T00:50:52.028Z,77.63
2022-12-18T00:53:37.719Z,78.29
2022-12-18T00:56:24.170Z,77.90
2022-12-18T00:59:09.675Z,78.05
2022-12-18T01:01:57.883Z,78.13
2022-12-18T01:04:43.042Z,78.00
2022-12-18T01:07:28.463Z,78.08
2022-12-18T01:10:14.207Z,78.24
2022-12-18T01:12:59.861Z,78.19
2022-12-18T01:15:51.853Z,78.17
2022-12-18T01:18:37.401Z,78.33
2022-12-18T01:21:24.253Z,78.23
2022-12-18T01:24:12.717Z,77.97
2022-12-18T01:26:58.262Z,78.20
2022-12-18T01:29:43.651Z,78.27
2022-12-18T01:32:31.648Z,78.10
2022-12-18T01:35:17.254Z,77.57
2022-12-18T01:38:02.839Z,78.03
2022-12-18T01:40:48.369Z,77.78
2022-12-18T01:43:49.433Z,77.42
2022-12-18T01:46:34.914Z,77.82
2022-12-18T01:49:20.499Z,77.91
2022-12-18T01:52:06.039Z,77.70
2022-12-18T01:54:53.200Z,77.79
2022-12-18T01:57:39.433Z,78.10
2022-12-18T02:00:25.622Z,77.77
2022-12-18T02:03:11.612Z,77.76
2022-12-18T02:06:13.998Z,78.04
2022-12-18T02:09:10.539Z,77.53
2022-12-18T02:12:10.016Z,78.28
2022-12-18T02:15:25.025Z,77.63
2022-12-18T02:18:18.150Z,78.02
2022-12-18T02:21:28.677Z,77.76
2022-12-18T02:24:32.929Z,78.32
2022-12-18T02:27:19.714Z,78.13
2022-12-18T02:30:08.414Z,78.34
2022-12-18T02:32:56.427Z,78.65
2022-12-18T02:35:43.247Z,78.09
2022-12-18T02:38:31.300Z,78.41
2022-12-18T02:41:24.548Z,78.38
2022-12-18T02:44:11.750Z,78.90
2022-12-18T02:46:57.117Z,78.22
2022-12-18T02:49:58.710Z,78.47
2022-12-18T02:52:51.301Z,78.50
2022-12-18T02:55:57.607Z,78.48
2022-12-18T02:59:23.153Z,78.85
2022-12-18T03:02:24.933Z,78.21
2022-12-18T03:05:10.871Z,78.46
2022-12-18T03:08:19.178Z,78.84
2022-12-18T03:11:10.584Z,78.97
2022-12-18T03:13:59.584Z,78.83
2022-12-18T03:16:47.336Z,79.18
2022-12-18T03:19:34.392Z,78.22
2022-12-18T03:22:23.295Z,78.91
2022-12-18T03:25:15.649Z,78.82
2022-12-18T03:28:04.151Z,78.82
2022-12-18T03:30:56.815Z,78.77
2022-12-18T03:33:52.503Z,78.44
2022-12-18T03:36:38.450Z,79.18
2022-12-18T03:39:25.596Z,78.86
2022-12-18T03:42:24.543Z,78.49
2022-12-18T03:45:27.503Z,78.79
2022-12-18T03:48:22.459Z,79.03
2022-12-18T03:51:15.809Z,78.63
2022-12-18T03:54:05.133Z,78.59
2022-12-18T03:57:24.120Z,78.50
2022-12-18T04:00:18.151Z,79.09
2022-12-18T04:03:26.200Z,79.35
2022-12-18T04:06:13.038Z,79.00
2022-12-18T04:09:00.503Z,78.73
2022-12-18T04:11:47.586Z,78.95
2022-12-18T04:14:36.634Z,79.17
2022-12-18T04:17:24.910Z,79.32
2022-12-18T04:20:11.428Z,79.01
2022-12-18T04:23:00.917Z,79.05
2022-12-18T04:25:48.504Z,79.02
2022-12-18T04:28:40.727Z,79.05
2022-12-18T04:31:26.451Z,78.74
2022-12-18T04:34:12.544Z,79.03
2022-12-18T04:37:04.702Z,79.28
2022-12-18T04:39:50.556Z,79.34
2022-12-18T04:42:43.535Z,79.46
2022-12-18T04:45:28.702Z,79.48
2022-12-18T04:48:14.284Z,79.38
2022-12-18T04:50:59.869Z,79.63
2022-12-18T04:53:45.737Z,79.31
2022-12-18T04:56:32.694Z,79.00
2022-12-18T04:59:17.889Z,79.21
2022-12-18T05:02:03.362Z,79.37
2022-12-18T05:04:48.981Z,79.41
2022-12-18T05:07:34.491Z,79.21
2022-12-18T05:10:19.844Z,79.27
2022-12-18T05:13:05.313Z,79.43
2022-12-18T05:15:54.840Z,79.80
2022-12-18T05:18:40.670Z,79.40
2022-12-18T05:21:28.450Z,79.68
2022-12-18T05:24:13.855Z,79.15
2022-12-18T05:26:59.454Z,79.80
2022-12-18T05:29:44.903Z,79.94
2022-12-18T05:32:30.310Z,79.60
2022-12-18T05:35:15.716Z,79.71
2022-12-18T05:38:01.190Z,79.22
2022-12-18T05:40:48.467Z,79.66
2022-12-18T05:43:36.872Z,79.73
2022-12-18T05:46:22.631Z,79.77
2022-12-18T05:49:11.078Z,79.68
2022-12-18T05:51:56.949Z,79.15
2022-12-18T05:54:42.556Z,80.12
2022-12-18T05:57:30.953Z,79.88
2022-12-18T06:00:16.902Z,79.76
2022-12-18T06:03:03.096Z,80.06
2022-12-18T06:05:48.731Z,80.17
2022-12-18T06:08:34.077Z,79.75
2022-12-18T06:11:25.342Z,79.92
2022-12-18T06:14:11.439Z,80.03
2022-12-18T06:16:58.149Z,79.51
2022-12-18T06:19:43.486Z,79.38
2022-12-18T06:22:29.051Z,79.70
2022-12-18T06:25:14.527Z,79.74
2022-12-18T06:28:00.293Z,79.93
2022-12-18T06:30:47.085Z,79.93
2022-12-18T06:33:32.729Z,80.12
2022-12-18T06:36:18.416Z,79.38
2022-12-18T06:39:03.829Z,79.42
2022-12-18T06:41:49.474Z,79.13
2022-12-18T06:44:34.784Z,79.58
2022-12-18T06:47:20.111Z,79.81
2022-12-18T06:50:05.683Z,79.58
2022-12-18T06:52:53.662Z,79.24
2022-12-18T06:55:39.346Z,79.59
2022-12-18T06:58:25.628Z,79.68
2022-12-18T07:01:12.845Z,79.76
2022-12-18T07:03:58.702Z,80.04
2022-12-18T07:06:44.157Z,79.58
2022-12-18T07:09:29.643Z,79.88
2022-12-18T07:12:15.049Z,79.95
2022-12-18T07:15:00.606Z,79.55
2022-12-18T07:17:46.007Z,79.36
2022-12-18T07:20:31.483Z,79.82
2022-12-18T07:23:16.657Z,79.51
2022-12-18T07:26:07.564Z,79.91
2022-12-18T07:28:56.347Z,80.38
2022-12-18T07:31:42.013Z,79.83
2022-12-18T07:34:27.842Z,80.06
2022-12-18T07:37:13.326Z,79.67
2022-12-18T07:39:59.202Z,79.78
2022-12-18T07:42:44.770Z,79.97
2022-12-18T07:45:30.083Z,79.77
2022-12-18T07:48:15.478Z,79.67
2022-12-18T07:51:05.351Z,79.66
2022-12-18T07:53:52.427Z,79.97
2022-12-18T07:56:37.749Z,79.34
2022-12-18T07:59:26.302Z,79.66
2022-12-18T08:02:12.060Z,80.05
2022-12-18T08:04:57.954Z,79.79
2022-12-18T08:07:43.462Z,78.95
2022-12-18T08:10:28.745Z,79.34
2022-12-18T08:13:14.292Z,79.27
2022-12-18T08:16:05.829Z,79.15
2022-12-18T08:18:55.779Z,79.40
2022-12-18T08:21:41.285Z,79.62
2022-12-18T08:24:26.983Z,79.44
2022-12-18T08:27:42.167Z,79.51
2022-12-18T08:30:17.751Z,79.87
2022-12-18T08:33:04.240Z,79.35
2022-12-18T08:35:49.790Z,79.25
2022-12-18T08:38:35.609Z,79.76
2022-12-18T08:41:22.099Z,79.49
2022-12-18T08:44:27.852Z,79.70
2022-12-18T08:47:13.043Z,79.44
2022-12-18T08:49:58.637Z,79.37
2022-12-18T08:52:44.343Z,79.55
2022-12-18T08:55:29.778Z,80.04
2022-12-18T08:58:15.294Z,79.59
2022-12-18T09:01:03.313Z,79.71
2022-12-18T09:03:51.722Z,79.49
2022-12-18T09:06:37.665Z,79.50
2022-12-18T09:09:23.730Z,79.37
2022-12-18T09:12:08.998Z,79.32
2022-12-18T09:14:54.416Z,79.46
2022-12-18T09:17:39.872Z,79.80
2022-12-18T09:20:25.659Z,79.69
2022-12-18T09:23:11.801Z,79.21
2022-12-18T09:26:00.770Z,79.64
2022-12-18T09:28:46.512Z,79.98
2022-12-18T09:31:32.318Z,79.48
2022-12-18T09:34:17.870Z,79.92
2022-12-18T09:37:03.619Z,80.23
2022-12-18T09:39:48.736Z,79.81
2022-12-18T09:42:34.300Z,80.03
2022-12-18T09:45:19.798Z,79.68
2022-12-18T09:48:06.664Z,79.63
2022-12-18T09:50:57.192Z,79.48
2022-12-18T09:53:48.271Z,80.18
2022-12-18T09:56:38.816Z,79.88
2022-12-18T09:59:38.901Z,79.86
2022-12-18T10:02:26.771Z,79.23
2022-12-18T10:05:20.707Z,79.82
2022-12-18T10:08:34.175Z,80.13
2022-12-18T10:11:26.729Z,79.66
2022-12-18T10:14:35.081Z,79.98
2022-12-18T10:17:27.472Z,79.48
2022-12-18T10:20:39.819Z,80.25
2022-12-18T10:23:34.980Z,80.04
2022-12-18T10:26:22.114Z,79.52
2022-12-18T10:29:13.712Z,79.61
2022-12-18T10:31:59.702Z,80.54
2022-12-18T10:34:53.027Z,79.66
2022-12-18T10:38:21.763Z,79.22
2022-12-18T10:41:29.357Z,79.08
2022-12-18T10:44:23.620Z,79.38
2022-12-18T10:47:18.730Z,78.94
2022-12-18T10:50:04.990Z,79.40
2022-12-18T10:53:05.158Z,79.46
2022-12-18T10:55:53.614Z,79.59
2022-12-18T10:58:40.899Z,79.35
2022-12-18T11:01:27.622Z,79.63
2022-12-18T11:04:18.018Z,79.38
2022-12-18T11:07:08.800Z,79.79
2022-12-18T11:10:02.206Z,80.33
2022-12-18T11:12:48.443Z,80.26
2022-12-18T11:15:34.544Z,79.79
2022-12-18T11:18:37.153Z,79.92
2022-12-18T11:21:22.582Z,80.24
2022-12-18T11:24:25.470Z,79.67
2022-12-18T11:27:19.499Z,79.64
2022-12-18T11:30:21.551Z,79.59
2022-12-18T11:33:21.765Z,79.51
2022-12-18T11:36:10.702Z,79.89
2022-12-18T11:39:00.456Z,79.93
2022-12-18T11:42:12.907Z,79.71
2022-12-18T11:45:04.320Z,79.31
2022-12-18T11:48:05.866Z,79.06
2022-12-18T11:51:03.933Z,79.55
2022-12-18T11:53:49.336Z,79.82
2022-12-18T11:56:42.696Z,79.66
2022-12-18T11:59:48.176Z,79.74
2022-12-18T12:03:12.041Z,79.53
2022-12-18T12:06:24.061Z,79.55
2022-12-18T12:09:26.112Z,79.87
2022-12-18T12:12:55.679Z,79.82
2022-12-18T12:16:29.563Z,79.61
2022-12-18T12:19:33.288Z,79.82
2022-12-18T12:22:27.810Z,80.06
2022-12-18T12:25:45.384Z,79.62
2022-12-18T12:28:55.545Z,79.55
2022-12-18T12:31:56.093Z,79.57
2022-12-18T12:34:47.576Z,79.85
2022-12-18T12:37:45.080Z,80.04
2022-12-18T12:40:55.176Z,79.56
2022-12-18T12:43:50.978Z,80.05
2022-12-18T12:46:42.666Z,79.82
2022-12-18T12:49:37.667Z,79.67
2022-12-18T12:52:37.074Z,79.51
2022-12-18T12:55:31.698Z,79.57
2022-12-18T12:58:35.426Z,79.85
2022-12-18T13:01:30.196Z,80.20
2022-12-18T13:04:43.194Z,79.69
2022-12-18T13:07:58.530Z,80.24
2022-12-18T13:10:44.799Z,79.83
2022-12-18T13:13:50.751Z,79.34
2022-12-18T13:16:36.199Z,80.06
2022-12-18T13:19:27.337Z,79.52
2022-12-18T13:22:37.707Z,79.74
2022-12-18T13:25:43.802Z,79.63
2022-12-18T13:28:48.047Z,79.17
2022-12-18T13:31:43.431Z,79.39
2022-12-18T13:34:34.633Z,80.13
2022-12-18T13:37:32.643Z,79.33
2022-12-18T13:40:40.475Z,79.25
2022-12-18T13:43:29.700Z,79.91
2022-12-18T13:46:44.681Z,80.14
2022-12-18T13:49:42.325Z,79.63
2022-12-18T13:52:41.839Z,79.84
2022-12-18T13:55:30.506Z,79.69
2022-12-18T13:58:15.816Z,79.41
2022-12-18T14:01:03.150Z,79.40
2022-12-18T14:03:51.307Z,79.30
2022-12-18T14:06:37.610Z,78.88
2022-12-18T14:09:28.136Z,78.82
2022-12-18T14:12:44.120Z,78.27
2022-12-18T14:15:48.911Z,78.29
2022-12-18T14:18:45.138Z,78.15
2022-12-18T14:21:33.091Z,78.40
2022-12-18T14:24:23.638Z,78.58
2022-12-18T14:27:39.119Z,78.34
2022-12-18T14:30:31.334Z,78.08
2022-12-18T14:33:28.060Z,78.24
2022-12-18T14:36:18.097Z,78.12
2022-12-18T14:39:03.886Z,78.44
2022-12-18T14:41:59.758Z,77.82
2022-12-18T14:45:12.817Z,77.45
2022-12-18T14:47:56.316Z,77.31
2022-12-18T14:50:45.620Z,77.72
2022-12-18T14:53:47.606Z,77.95
2022-12-18T14:56:38.997Z,78.01
2022-12-18T14:59:27.145Z,77.83
2022-12-18T15:02:28.562Z,77.80
2022-12-18T15:05:14.131Z,77.51
2022-12-18T15:08:01.746Z,78.25
2022-12-18T15:10:49.023Z,78.44
2022-12-18T15:13:36.836Z,78.49
2022-12-18T15:16:22.567Z,78.78
2022-12-18T15:19:09.148Z,78.33
2022-12-18T15:21:54.520Z,78.24
2022-12-18T15:24:39.897Z,78.34
2022-12-18T15:27:31.641Z,78.42
2022-12-18T15:30:23.406Z,78.47
2022-12-18T15:33:28.208Z,78.45
2022-12-18T15:36:18.993Z,78.67
2022-12-18T15:39:14.276Z,78.75
2022-12-18T15:42:20.808Z,78.67
2022-12-18T15:45:06.794Z,78.58
2022-12-18T15:47:52.547Z,78.93
2022-12-18T15:50:37.914Z,78.97
2022-12-18T15:53:26.386Z,78.86
2022-12-18T15:56:31.835Z,78.81
2022-12-18T15:59:19.295Z,78.58
2022-12-18T16:02:18.047Z,78.58
2022-12-18T16:05:04.331Z,78.44
2022-12-18T16:07:49.737Z,78.63
2022-12-18T16:10:36.075Z,78.42
2022-12-18T16:13:22.107Z,78.53
2022-12-18T16:16:09.566Z,78.51
2022-12-18T16:18:55.112Z,78.46
2022-12-18T16:21:40.590Z,79.13
2022-12-18T16:24:31.979Z,79.38
2022-12-18T16:27:17.786Z,79.73
2022-12-18T16:30:03.986Z,79.31
2022-12-18T16:32:51.003Z,80.03
2022-12-18T16:35:38.274Z,79.22
2022-12-18T16:38:23.374Z,79.46
2022-12-18T16:41:34.799Z,80.04
2022-12-18T16:44:21.259Z,80.05
2022-12-18T16:47:06.820Z,79.94
2022-12-18T16:49:54.683Z,80.08
2022-12-18T16:52:40.223Z,79.99
2022-12-18T16:55:25.441Z,79.80
2022-12-18T16:58:11.539Z,80.24
2022-12-18T17:00:58.189Z,80.10
2022-12-18T17:03:44.319Z,80.44
2022-12-18T17:09:25.305Z,80.04
2022-12-18T17:12:10.858Z,80.17
2022-12-18T17:14:56.652Z,80.45
2022-12-18T17:17:42.277Z,80.21
2022-12-18T17:20:28.010Z,80.30
2022-12-18T17:23:13.495Z,80.23
2022-12-18T17:26:00.229Z,80.53
2022-12-18T17:28:48.178Z,80.02
2022-12-18T17:31:36.990Z,80.39
2022-12-18T17:34:23.344Z,80.47
2022-12-18T17:37:09.614Z,80.66
2022-12-18T17:39:54.742Z,80.77
2022-12-18T17:42:40.641Z,80.40
2022-12-18T17:45:26.003Z,80.83
2022-12-18T17:48:14.023Z,80.20
2022-12-18T17:51:04.277Z,80.58
2022-12-18T17:53:50.556Z,80.33
2022-12-18T17:56:39.570Z,80.95
2022-12-18T17:59:28.092Z,80.56
2022-12-18T18:02:13.893Z,80.71
2022-12-18T18:05:02.267Z,80.45
2022-12-18T18:07:48.087Z,80.88
2022-12-18T18:10:38.376Z,80.41
2022-12-18T18:13:47.082Z,80.39
2022-12-18T18:16:38.745Z,80.95
2022-12-18T18:19:25.086Z,80.39
2022-12-18T18:22:11.173Z,80.58
2022-12-18T18:24:56.462Z,80.11
2022-12-18T18:27:41.956Z,80.52
2022-12-18T18:30:31.508Z,80.50
2022-12-18T18:33:18.205Z,80.85
2022-12-18T18:36:04.321Z,80.59
2022-12-18T18:38:51.274Z,80.68
2022-12-18T18:41:36.701Z,80.87
2022-12-18T18:44:25.687Z,80.65
2022-12-18T18:47:11.220Z,80.63
2022-12-18T18:49:56.741Z,80.86
2022-12-18T18:52:42.477Z,80.74
2022-12-18T18:55:35.674Z,80.54
2022-12-18T18:58:21.005Z,80.72
2022-12-18T19:01:16.342Z,80.51
2022-12-18T19:04:03.183Z,80.87
2022-12-18T19:06:49.471Z,80.84
2022-12-18T19:09:36.387Z,80.63
2022-12-18T19:13:05.893Z,80.40
2022-12-18T19:15:53.820Z,80.80
2022-12-18T19:18:40.689Z,80.99
2022-12-18T19:21:31.178Z,80.76
2022-12-18T19:24:21.413Z,80.62
2022-12-18T19:27:07.877Z,80.71
2022-12-18T19:29:53.382Z,80.50
2022-12-18T19:32:39.006Z,80.75
2022-12-18T19:35:25.049Z,80.77
2022-12-18T19:38:10.991Z,80.73
2022-12-18T19:40:56.525Z,80.75
2022-12-18T19:43:45.334Z,81.11
2022-12-18T19:46:30.848Z,80.99
2022-12-18T19:49:18.076Z,80.95
2022-12-18T19:52:04.258Z,80.86
2022-12-18T19:54:52.821Z,80.59
2022-12-18T19:57:38.913Z,80.81
2022-12-18T20:00:24.564Z,80.63
2022-12-18T20:03:20.501Z,80.37
2022-12-18T20:06:20.547Z,80.68
2022-12-18T20:09:07.881Z,80.75
2022-12-18T20:11:53.726Z,80.83
2022-12-18T20:14:39.298Z,80.93
2022-12-18T20:17:24.716Z,80.89
2022-12-18T20:20:11.254Z,81.09
2022-12-18T20:22:57.410Z,80.75
2022-12-18T20:25:43.898Z,80.99
2022-12-18T20:28:30.698Z,80.67
2022-12-18T20:31:16.160Z,80.99
2022-12-18T20:34:03.677Z,81.02
2022-12-18T20:36:51.881Z,80.93
2022-12-18T20:39:37.853Z,80.77
2022-12-18T20:42:23.955Z,80.76
2022-12-18T20:45:09.629Z,80.85
2022-12-18T20:47:55.471Z,81.04
2022-12-18T20:50:43.392Z,80.94
2022-12-18T20:53:29.484Z,81.08
2022-12-18T20:56:21.655Z,80.61
2022-12-18T20:59:07.595Z,80.72
2022-12-18T21:01:53.206Z,80.49
2022-12-18T21:04:41.904Z,80.45
2022-12-18T21:07:27.695Z,80.32
2022-12-18T21:10:13.487Z,80.42
2022-12-18T21:13:04.606Z,80.59
2022-12-18T21:15:54.451Z,80.78
2022-12-18T21:18:40.078Z,80.66
2022-12-18T21:21:26.878Z,80.61
2022-12-18T21:24:13.066Z,80.86
2022-12-18T21:26:58.685Z,80.82
2022-12-18T21:29:44.284Z,80.79
2022-12-18T21:32:33.472Z,80.33
2022-12-18T21:35:22.478Z,80.54
2022-12-18T21:38:10.097Z,80.68
2022-12-18T21:40:55.977Z,80.45
2022-12-18T21:44:00.246Z,80.90
2022-12-18T21:46:53.134Z,80.13
2022-12-18T21:49:40.909Z,80.25
2022-12-18T21:52:32.166Z,80.38
2022-12-18T21:55:18.548Z,80.54
2022-12-18T21:58:03.942Z,80.72
2022-12-18T22:00:50.407Z,80.81
2022-12-18T22:03:35.925Z,80.96
2022-12-18T22:06:22.519Z,80.75
2022-12-18T22:09:09.505Z,80.57
2022-12-18T22:11:54.986Z,80.67
2022-12-18T22:14:40.235Z,80.64
2022-12-18T22:17:25.784Z,80.84
2022-12-18T22:20:13.549Z,80.45
2022-12-18T22:23:01.065Z,80.58
2022-12-18T22:25:51.892Z,80.99
2022-12-18T22:28:55.776Z,80.30
2022-12-18T22:31:45.871Z,80.76
2022-12-18T22:34:36.290Z,80.79
2022-12-18T22:37:24.880Z,80.54
2022-12-18T22:40:25.415Z,80.73
2022-12-18T22:43:11.885Z,81.06
2022-12-18T22:45:57.714Z,80.50
2022-12-18T22:48:43.773Z,80.52
2022-12-18T22:51:29.530Z,80.06
2022-12-18T22:54:17.654Z,80.45
2022-12-18T22:57:04.006Z,80.86
2022-12-18T22:59:50.686Z,80.51
2022-12-18T23:02:38.664Z,80.76
2022-12-18T23:05:28.522Z,80.55
2022-12-18T23:08:14.016Z,80.61
2022-12-18T23:10:59.660Z,80.76
2022-12-18T23:13:45.508Z,80.83
2022-12-18T23:16:31.470Z,80.75
2022-12-18T23:19:16.827Z,80.75
2022-12-18T23:22:11.909Z,80.58
2022-12-18T23:24:57.506Z,80.75
2022-12-18T23:27:45.896Z,80.78
2022-12-18T23:30:32.674Z,81.31
2022-12-18T23:33:18.058Z,81.19
2022-12-18T23:36:06.726Z,80.68
2022-12-18T23:38:54.745Z,81.10
2022-12-18T23:41:40.285Z,80.94
2022-12-18T23:44:27.677Z,81.37
2022-12-18T23:47:12.864Z,80.98
2022-12-18T23:49:58.399Z,81.68
2022-12-18T23:52:45.806Z,81.65
2022-12-18T23:55:31.429Z,81.98
2022-12-18T23:58:21.186Z,81.64
